sensor_id;sensor_type;location;lat;lon;timestamp;temperature;humidity
77247;SHT35;66279;42.820;23.374;2023-02-12T00:00:07;-5.41;79.15
77247;SHT35;66279;42.820;23.374;2023-02-12T00:02:32;-5.36;78.99
77247;SHT35;66279;42.820;23.374;2023-02-12T00:04:58;-5.42;79.07
77247;SHT35;66279;42.820;23.374;2023-02-12T00:07:23;-5.43;78.82
77247;SHT35;66279;42.820;23.374;2023-02-12T00:09:49;-5.45;79.20
77247;SHT35;66279;42.820;23.374;2023-02-12T00:12:15;-5.52;78.99
77247;SHT35;66279;42.820;23.374;2023-02-12T00:14:41;-5.55;79.51
77247;SHT35;66279;42.820;23.374;2023-02-12T00:17:06;-5.47;79.31
77247;SHT35;66279;42.820;23.374;2023-02-12T00:19:32;-5.45;79.31
77247;SHT35;66279;42.820;23.374;2023-02-12T00:21:58;-5.49;79.24
77247;SHT35;66279;42.820;23.374;2023-02-12T00:24:24;-5.45;79.85
77247;SHT35;66279;42.820;23.374;2023-02-12T00:26:49;-5.38;79.99
77247;SHT35;66279;42.820;23.374;2023-02-12T00:29:15;-5.07;78.36
77247;SHT35;66279;42.820;23.374;2023-02-12T00:31:41;-5.04;78.25
77247;SHT35;66279;42.820;23.374;2023-02-12T00:34:08;-5.03;78.42
77247;SHT35;66279;42.820;23.374;2023-02-12T00:36:34;-5.04;78.88
77247;SHT35;66279;42.820;23.374;2023-02-12T00:39:00;-5.05;79.32
77247;SHT35;66279;42.820;23.374;2023-02-12T00:41:25;-5.03;79.51
77247;SHT35;66279;42.820;23.374;2023-02-12T00:43:51;-5.03;78.94
77247;SHT35;66279;42.820;23.374;2023-02-12T00:46:17;-4.96;78.70
77247;SHT35;66279;42.820;23.374;2023-02-12T00:48:43;-4.98;78.88
77247;SHT35;66279;42.820;23.374;2023-02-12T00:51:08;-4.96;79.18
77247;SHT35;66279;42.820;23.374;2023-02-12T00:53:34;-5.00;79.31
77247;SHT35;66279;42.820;23.374;2023-02-12T00:56:00;-4.98;79.56
77247;SHT35;66279;42.820;23.374;2023-02-12T00:58:26;-5.04;79.79
77247;SHT35;66279;42.820;23.374;2023-02-12T01:00:52;-5.04;79.99
77247;SHT35;66279;42.820;23.374;2023-02-12T01:03:17;-5.04;81.12
77247;SHT35;66279;42.820;23.374;2023-02-12T01:05:43;-4.93;80.15
77247;SHT35;66279;42.820;23.374;2023-02-12T01:08:12;-4.87;80.35
77247;SHT35;66279;42.820;23.374;2023-02-12T01:10:38;-4.86;80.75
77247;SHT35;66279;42.820;23.374;2023-02-12T01:13:03;-4.84;80.43
77247;SHT35;66279;42.820;23.374;2023-02-12T01:15:29;-4.80;80.58
77247;SHT35;66279;42.820;23.374;2023-02-12T01:17:54;-4.77;80.27
77247;SHT35;66279;42.820;23.374;2023-02-12T01:20:22;-4.69;79.81
77247;SHT35;66279;42.820;23.374;2023-02-12T01:22:49;-4.63;79.76
77247;SHT35;66279;42.820;23.374;2023-02-12T01:25:15;-4.62;80.08
77247;SHT35;66279;42.820;23.374;2023-02-12T01:27:41;-4.62;80.04
77247;SHT35;66279;42.820;23.374;2023-02-12T01:30:10;-4.60;79.54
77247;SHT35;66279;42.820;23.374;2023-02-12T01:32:36;-4.58;80.25
77247;SHT35;66279;42.820;23.374;2023-02-12T01:35:02;-4.59;79.65
77247;SHT35;66279;42.820;23.374;2023-02-12T01:37:27;-4.59;79.90
77247;SHT35;66279;42.820;23.374;2023-02-12T01:39:53;-4.58;80.05
77247;SHT35;66279;42.820;23.374;2023-02-12T01:42:18;-4.59;80.05
77247;SHT35;66279;42.820;23.374;2023-02-12T01:47:42;-4.65;80.51
77247;SHT35;66279;42.820;23.374;2023-02-12T01:50:18;-4.70;81.03
77247;SHT35;66279;42.820;23.374;2023-02-12T01:52:48;-4.70;80.92
77247;SHT35;66279;42.820;23.374;2023-02-12T01:55:15;-4.69;80.85
77247;SHT35;66279;42.820;23.374;2023-02-12T01:57:44;-4.67;80.47
77247;SHT35;66279;42.820;23.374;2023-02-12T02:00:13;-4.66;81.06
77247;SHT35;66279;42.820;23.374;2023-02-12T02:02:39;-4.63;80.14
77247;SHT35;66279;42.820;23.374;2023-02-12T02:05:07;-4.70;80.58
77247;SHT35;66279;42.820;23.374;2023-02-12T02:07:32;-4.70;80.55
77247;SHT35;66279;42.820;23.374;2023-02-12T02:09:58;-4.75;80.28
77247;SHT35;66279;42.820;23.374;2023-02-12T02:12:25;-4.84;80.24
77247;SHT35;66279;42.820;23.374;2023-02-12T02:15:10;-4.89;80.41
77247;SHT35;66279;42.820;23.374;2023-02-12T02:18:06;-4.86;80.07
77247;SHT35;66279;42.820;23.374;2023-02-12T02:23:47;-5.00;80.83
77247;SHT35;66279;42.820;23.374;2023-02-12T02:26:32;-5.00;80.35
77247;SHT35;66279;42.820;23.374;2023-02-12T02:31:44;-5.12;81.54
77247;SHT35;66279;42.820;23.374;2023-02-12T02:36:48;-5.05;82.07
77247;SHT35;66279;42.820;23.374;2023-02-12T02:39:36;-5.08;80.86
77247;SHT35;66279;42.820;23.374;2023-02-12T02:42:31;-5.10;80.57
77247;SHT35;66279;42.820;23.374;2023-02-12T02:44:59;-5.12;80.97
77247;SHT35;66279;42.820;23.374;2023-02-12T02:47:40;-5.11;81.25
77247;SHT35;66279;42.820;23.374;2023-02-12T02:50:17;-5.11;81.64
77247;SHT35;66279;42.820;23.374;2023-02-12T02:52:52;-5.01;81.46
77247;SHT35;66279;42.820;23.374;2023-02-12T02:55:21;-4.97;81.43
77247;SHT35;66279;42.820;23.374;2023-02-12T02:57:55;-4.94;81.77
77247;SHT35;66279;42.820;23.374;2023-02-12T03:00:36;-4.91;81.35
77247;SHT35;66279;42.820;23.374;2023-02-12T03:03:29;-4.84;81.90
77247;SHT35;66279;42.820;23.374;2023-02-12T03:06:21;-4.73;81.60
77247;SHT35;66279;42.820;23.374;2023-02-12T03:09:00;-4.62;81.16
77247;SHT35;66279;42.820;23.374;2023-02-12T03:11:29;-4.56;81.24
77247;SHT35;66279;42.820;23.374;2023-02-12T03:16:33;-4.42;81.73
77247;SHT35;66279;42.820;23.374;2023-02-12T03:19:13;-4.36;81.23
77247;SHT35;66279;42.820;23.374;2023-02-12T03:21:48;-4.29;81.31
77247;SHT35;66279;42.820;23.374;2023-02-12T03:26:53;-4.19;80.95
77247;SHT35;66279;42.820;23.374;2023-02-12T03:29:22;-4.18;79.85
77247;SHT35;66279;42.820;23.374;2023-02-12T03:31:55;-4.09;80.65
77247;SHT35;66279;42.820;23.374;2023-02-12T03:37:20;-3.97;80.58
77247;SHT35;66279;42.820;23.374;2023-02-12T03:40:15;-3.91;80.33
77247;SHT35;66279;42.820;23.374;2023-02-12T03:45:37;-3.81;79.13
77247;SHT35;66279;42.820;23.374;2023-02-12T03:48:12;-3.86;80.00
77247;SHT35;66279;42.820;23.374;2023-02-12T03:53:16;-3.80;79.20
77247;SHT35;66279;42.820;23.374;2023-02-12T03:55:44;-3.77;79.52
77247;SHT35;66279;42.820;23.374;2023-02-12T03:58:16;-3.70;79.37
77247;SHT35;66279;42.820;23.374;2023-02-12T04:00:43;-3.64;78.95
77247;SHT35;66279;42.820;23.374;2023-02-12T04:03:09;-3.57;79.25
77247;SHT35;66279;42.820;23.374;2023-02-12T04:05:35;-3.55;79.18
77247;SHT35;66279;42.820;23.374;2023-02-12T04:08:08;-3.56;79.63
77247;SHT35;66279;42.820;23.374;2023-02-12T04:10:44;-3.50;79.32
77247;SHT35;66279;42.820;23.374;2023-02-12T04:13:27;-3.46;78.06
77247;SHT35;66279;42.820;23.374;2023-02-12T04:16:25;-3.40;77.69
77247;SHT35;66279;42.820;23.374;2023-02-12T04:18:54;-3.34;77.58
77247;SHT35;66279;42.820;23.374;2023-02-12T04:27:01;-3.20;77.96
77247;SHT35;66279;42.820;23.374;2023-02-12T04:29:50;-3.18;78.17
77247;SHT35;66279;42.820;23.374;2023-02-12T04:32:23;-3.22;77.61
77247;SHT35;66279;42.820;23.374;2023-02-12T04:35:22;-3.28;76.80
77247;SHT35;66279;42.820;23.374;2023-02-12T04:38:16;-3.18;75.88
77247;SHT35;66279;42.820;23.374;2023-02-12T04:40:43;-3.11;75.37
77247;SHT35;66279;42.820;23.374;2023-02-12T04:43:09;-3.13;75.95
77247;SHT35;66279;42.820;23.374;2023-02-12T04:45:36;-3.12;75.57
77247;SHT35;66279;42.820;23.374;2023-02-12T04:48:02;-3.13;75.66
77247;SHT35;66279;42.820;23.374;2023-02-12T04:50:37;-3.12;75.61
77247;SHT35;66279;42.820;23.374;2023-02-12T04:53:03;-3.04;74.71
77247;SHT35;66279;42.820;23.374;2023-02-12T04:55:29;-3.09;74.52
77247;SHT35;66279;42.820;23.374;2023-02-12T04:57:55;-3.07;75.07
77247;SHT35;66279;42.820;23.374;2023-02-12T05:00:20;-3.11;76.44
77247;SHT35;66279;42.820;23.374;2023-02-12T05:02:46;-3.09;77.45
77247;SHT35;66279;42.820;23.374;2023-02-12T05:05:11;-3.11;77.08
77247;SHT35;66279;42.820;23.374;2023-02-12T05:07:37;-3.09;77.71
77247;SHT35;66279;42.820;23.374;2023-02-12T05:10:03;-2.92;77.18
77247;SHT35;66279;42.820;23.374;2023-02-12T05:12:28;-2.95;76.19
77247;SHT35;66279;42.820;23.374;2023-02-12T05:14:54;-2.87;75.71
77247;SHT35;66279;42.820;23.374;2023-02-12T05:17:23;-2.91;75.71
77247;SHT35;66279;42.820;23.374;2023-02-12T05:19:49;-2.84;76.30
77247;SHT35;66279;42.820;23.374;2023-02-12T05:22:15;-2.83;77.31
77247;SHT35;66279;42.820;23.374;2023-02-12T05:24:41;-2.81;77.69
77247;SHT35;66279;42.820;23.374;2023-02-12T05:27:06;-2.77;77.38
77247;SHT35;66279;42.820;23.374;2023-02-12T05:29:36;-2.76;78.46
77247;SHT35;66279;42.820;23.374;2023-02-12T05:32:02;-2.73;78.82
77247;SHT35;66279;42.820;23.374;2023-02-12T05:34:28;-2.77;79.02
77247;SHT35;66279;42.820;23.374;2023-02-12T05:36:54;-2.74;78.82
77247;SHT35;66279;42.820;23.374;2023-02-12T05:39:19;-2.84;77.31
77247;SHT35;66279;42.820;23.374;2023-02-12T05:41:45;-2.78;76.13
77247;SHT35;66279;42.820;23.374;2023-02-12T05:44:11;-2.74;76.62
77247;SHT35;66279;42.820;23.374;2023-02-12T05:46:36;-2.70;77.17
77247;SHT35;66279;42.820;23.374;2023-02-12T05:49:02;-2.71;77.23
77247;SHT35;66279;42.820;23.374;2023-02-12T05:51:28;-2.77;77.88
77247;SHT35;66279;42.820;23.374;2023-02-12T05:53:58;-2.74;78.60
77247;SHT35;66279;42.820;23.374;2023-02-12T05:56:30;-2.64;77.96
77247;SHT35;66279;42.820;23.374;2023-02-12T05:58:58;-2.61;76.01
77247;SHT35;66279;42.820;23.374;2023-02-12T06:01:29;-2.66;75.46
77247;SHT35;66279;42.820;23.374;2023-02-12T06:03:55;-2.60;76.42
77247;SHT35;66279;42.820;23.374;2023-02-12T06:06:24;-2.56;75.61
77247;SHT35;66279;42.820;23.374;2023-02-12T06:08:50;-2.54;75.79
77247;SHT35;66279;42.820;23.374;2023-02-12T06:11:16;-2.49;75.92
77247;SHT35;66279;42.820;23.374;2023-02-12T06:13:42;-2.47;75.42
77247;SHT35;66279;42.820;23.374;2023-02-12T06:16:23;-2.45;75.67
77247;SHT35;66279;42.820;23.374;2023-02-12T06:18:50;-2.42;75.47
77247;SHT35;66279;42.820;23.374;2023-02-12T06:21:17;-2.39;74.55
77247;SHT35;66279;42.820;23.374;2023-02-12T06:23:43;-2.40;75.34
77247;SHT35;66279;42.820;23.374;2023-02-12T06:26:09;-2.46;74.03
77247;SHT35;66279;42.820;23.374;2023-02-12T06:28:35;-2.43;74.97
77247;SHT35;66279;42.820;23.374;2023-02-12T06:32:06;-2.33;73.93
77247;SHT35;66279;42.820;23.374;2023-02-12T06:34:36;-2.37;74.84
77247;SHT35;66279;42.820;23.374;2023-02-12T06:39:29;-2.26;75.71
77247;SHT35;66279;42.820;23.374;2023-02-12T07:55:48;-1.35;71.98
77247;SHT35;66279;42.820;23.374;2023-02-12T08:25:20;-0.98;72.06
77247;SHT35;66279;42.820;23.374;2023-02-12T09:18:00;0.82;68.84
77247;SHT35;66279;42.820;23.374;2023-02-12T09:20:28;0.83;68.74
77247;SHT35;66279;42.820;23.374;2023-02-12T09:54:58;2.69;65.33
77247;SHT35;66279;42.820;23.374;2023-02-12T10:12:34;3.39;63.04
77247;SHT35;66279;42.820;23.374;2023-02-12T10:15:26;3.43;63.59
77247;SHT35;66279;42.820;23.374;2023-02-12T10:23:31;3.70;63.45
77247;SHT35;66279;42.820;23.374;2023-02-12T10:26:20;3.67;63.76
77247;SHT35;66279;42.820;23.374;2023-02-12T10:33:49;3.98;62.80
77247;SHT35;66279;42.820;23.374;2023-02-12T10:38:46;4.06;65.80
77247;SHT35;66279;42.820;23.374;2023-02-12T10:41:15;4.35;62.49
77247;SHT35;66279;42.820;23.374;2023-02-12T10:43:41;4.40;62.74
77247;SHT35;66279;42.820;23.374;2023-02-12T10:46:13;4.36;62.40
77247;SHT35;66279;42.820;23.374;2023-02-12T10:48:39;4.33;61.93
77247;SHT35;66279;42.820;23.374;2023-02-12T10:53:38;4.13;61.77
77247;SHT35;66279;42.820;23.374;2023-02-12T10:58:41;4.25;62.56
77247;SHT35;66279;42.820;23.374;2023-02-12T11:03:57;4.32;62.52
77247;SHT35;66279;42.820;23.374;2023-02-12T11:06:31;4.45;61.82
77247;SHT35;66279;42.820;23.374;2023-02-12T11:08:58;4.50;61.11
77247;SHT35;66279;42.820;23.374;2023-02-12T11:11:27;4.59;61.91
77247;SHT35;66279;42.820;23.374;2023-02-12T11:14:05;4.61;60.53
77247;SHT35;66279;42.820;23.374;2023-02-12T11:16:53;4.56;59.24
77247;SHT35;66279;42.820;23.374;2023-02-12T11:19:28;4.71;60.37
77247;SHT35;66279;42.820;23.374;2023-02-12T11:22:11;4.81;60.01
77247;SHT35;66279;42.820;23.374;2023-02-12T11:24:43;4.94;60.38
77247;SHT35;66279;42.820;23.374;2023-02-12T11:27:21;5.09;59.51
77247;SHT35;66279;42.820;23.374;2023-02-12T11:30:06;5.01;58.49
77247;SHT35;66279;42.820;23.374;2023-02-12T11:32:36;5.14;60.54
77247;SHT35;66279;42.820;23.374;2023-02-12T11:35:18;4.95;58.15
77247;SHT35;66279;42.820;23.374;2023-02-12T11:37:51;4.98;58.19
77247;SHT35;66279;42.820;23.374;2023-02-12T11:40:19;5.11;59.67
77247;SHT35;66279;42.820;23.374;2023-02-12T11:42:49;5.07;57.95
77247;SHT35;66279;42.820;23.374;2023-02-12T11:45:18;5.11;58.19
77247;SHT35;66279;42.820;23.374;2023-02-12T11:47:44;4.85;58.25
77247;SHT35;66279;42.820;23.374;2023-02-12T11:50:30;4.87;58.59
77247;SHT35;66279;42.820;23.374;2023-02-12T11:53:01;4.83;60.28
77247;SHT35;66279;42.820;23.374;2023-02-12T11:55:31;4.88;58.60
77247;SHT35;66279;42.820;23.374;2023-02-12T11:58:03;5.04;59.62
77247;SHT35;66279;42.820;23.374;2023-02-12T12:00:38;5.05;58.09
77247;SHT35;66279;42.820;23.374;2023-02-12T12:03:14;5.17;58.35
77247;SHT35;66279;42.820;23.374;2023-02-12T12:05:47;5.09;58.86
77247;SHT35;66279;42.820;23.374;2023-02-12T12:08:20;5.18;58.69
77247;SHT35;66279;42.820;23.374;2023-02-12T12:11:12;5.11;57.39
77247;SHT35;66279;42.820;23.374;2023-02-12T12:13:48;5.05;57.82
77247;SHT35;66279;42.820;23.374;2023-02-12T12:16:31;5.12;58.94
77247;SHT35;66279;42.820;23.374;2023-02-12T12:19:27;5.19;58.13
77247;SHT35;66279;42.820;23.374;2023-02-12T12:24:52;5.45;57.35
77247;SHT35;66279;42.820;23.374;2023-02-12T12:27:53;5.28;57.22
77247;SHT35;66279;42.820;23.374;2023-02-12T12:36:38;5.02;58.25
77247;SHT35;66279;42.820;23.374;2023-02-12T12:39:27;4.88;58.61
77247;SHT35;66279;42.820;23.374;2023-02-12T12:53:54;5.28;57.34
77247;SHT35;66279;42.820;23.374;2023-02-12T13:13:36;5.35;56.15
77247;SHT35;66279;42.820;23.374;2023-02-12T13:27:49;5.17;55.95
77247;SHT35;66279;42.820;23.374;2023-02-12T13:30:17;5.14;56.43
77247;SHT35;66279;42.820;23.374;2023-02-12T13:33:06;5.08;55.94
77247;SHT35;66279;42.820;23.374;2023-02-12T13:35:34;5.01;55.89
77247;SHT35;66279;42.820;23.374;2023-02-12T13:38:02;4.98;56.11
77247;SHT35;66279;42.820;23.374;2023-02-12T13:40:30;4.77;56.69
77247;SHT35;66279;42.820;23.374;2023-02-12T13:43:13;4.85;56.47
77247;SHT35;66279;42.820;23.374;2023-02-12T13:51:00;4.73;56.28
77247;SHT35;66279;42.820;23.374;2023-02-12T13:53:31;4.70;56.22
77247;SHT35;66279;42.820;23.374;2023-02-12T13:56:24;4.74;56.69
77247;SHT35;66279;42.820;23.374;2023-02-12T13:58:53;4.74;56.69
77247;SHT35;66279;42.820;23.374;2023-02-12T14:01:40;4.73;56.37
77247;SHT35;66279;42.820;23.374;2023-02-12T14:10:03;4.73;56.49
77247;SHT35;66279;42.820;23.374;2023-02-12T14:12:32;4.76;56.60
77247;SHT35;66279;42.820;23.374;2023-02-12T14:15:34;4.73;56.26
77247;SHT35;66279;42.820;23.374;2023-02-12T14:18:20;4.67;56.72
77247;SHT35;66279;42.820;23.374;2023-02-12T14:20:46;4.61;56.21
77247;SHT35;66279;42.820;23.374;2023-02-12T14:23:25;4.56;56.47
77247;SHT35;66279;42.820;23.374;2023-02-12T14:26:36;4.47;56.71
77247;SHT35;66279;42.820;23.374;2023-02-12T14:28:52;4.43;56.88
77247;SHT35;66279;42.820;23.374;2023-02-12T14:31:27;4.42;57.01
77247;SHT35;66279;42.820;23.374;2023-02-12T14:36:40;4.38;56.55
77247;SHT35;66279;42.820;23.374;2023-02-12T14:49:56;4.23;56.59
77247;SHT35;66279;42.820;23.374;2023-02-12T14:52:27;4.13;56.77
77247;SHT35;66279;42.820;23.374;2023-02-12T14:54:58;4.13;56.54
77247;SHT35;66279;42.820;23.374;2023-02-12T14:57:39;4.10;56.95
77247;SHT35;66279;42.820;23.374;2023-02-12T15:02:52;4.16;56.63
77247;SHT35;66279;42.820;23.374;2023-02-12T15:05:22;4.09;56.77
77247;SHT35;66279;42.820;23.374;2023-02-12T15:07:55;4.03;57.11
77247;SHT35;66279;42.820;23.374;2023-02-12T15:10:27;3.91;57.84
77247;SHT35;66279;42.820;23.374;2023-02-12T15:13:06;3.91;57.83
77247;SHT35;66279;42.820;23.374;2023-02-12T15:15:52;3.92;57.59
77247;SHT35;66279;42.820;23.374;2023-02-12T15:21:19;3.87;57.71
77247;SHT35;66279;42.820;23.374;2023-02-12T15:23:48;3.88;57.92
77247;SHT35;66279;42.820;23.374;2023-02-12T15:26:23;3.85;58.07
77247;SHT35;66279;42.820;23.374;2023-02-12T15:28:51;3.78;58.13
77247;SHT35;66279;42.820;23.374;2023-02-12T15:31:28;3.74;58.56
77247;SHT35;66279;42.820;23.374;2023-02-12T15:33:56;3.67;58.63
77247;SHT35;66279;42.820;23.374;2023-02-12T15:36:24;3.63;58.77
77247;SHT35;66279;42.820;23.374;2023-02-12T15:38:56;3.61;59.27
77247;SHT35;66279;42.820;23.374;2023-02-12T15:43:53;3.47;59.94
77247;SHT35;66279;42.820;23.374;2023-02-12T15:46:20;3.44;59.71
77247;SHT35;66279;42.820;23.374;2023-02-12T15:48:45;3.44;59.86
77247;SHT35;66279;42.820;23.374;2023-02-12T15:51:34;3.40;59.99
77247;SHT35;66279;42.820;23.374;2023-02-12T15:54:04;3.40;59.85
77247;SHT35;66279;42.820;23.374;2023-02-12T15:56:31;3.27;60.83
77247;SHT35;66279;42.820;23.374;2023-02-12T15:59:01;3.23;61.00
77247;SHT35;66279;42.820;23.374;2023-02-12T16:01:30;3.29;60.56
77247;SHT35;66279;42.820;23.374;2023-02-12T16:04:02;3.15;61.05
77247;SHT35;66279;42.820;23.374;2023-02-12T16:06:31;3.22;60.79
77247;SHT35;66279;42.820;23.374;2023-02-12T16:09:05;3.23;60.86
77247;SHT35;66279;42.820;23.374;2023-02-12T16:11:31;3.22;60.64
77247;SHT35;66279;42.820;23.374;2023-02-12T16:14:00;3.06;61.48
77247;SHT35;66279;42.820;23.374;2023-02-12T16:16:38;2.91;62.40
77247;SHT35;66279;42.820;23.374;2023-02-12T16:19:32;2.84;62.78
77247;SHT35;66279;42.820;23.374;2023-02-12T16:24:59;2.77;62.56
77247;SHT35;66279;42.820;23.374;2023-02-12T16:27:30;2.69;63.33
77247;SHT35;66279;42.820;23.374;2023-02-12T16:29:59;2.65;63.55
77247;SHT35;66279;42.820;23.374;2023-02-12T16:32:35;2.61;63.68
77247;SHT35;66279;42.820;23.374;2023-02-12T16:42:38;2.61;63.32
77247;SHT35;66279;42.820;23.374;2023-02-12T16:48:06;2.51;64.84
77247;SHT35;66279;42.820;23.374;2023-02-12T16:50:35;2.45;65.44
77247;SHT35;66279;42.820;23.374;2023-02-12T16:53:15;2.47;65.16
77247;SHT35;66279;42.820;23.374;2023-02-12T16:55:47;2.34;65.96
77247;SHT35;66279;42.820;23.374;2023-02-12T16:58:12;2.30;65.92
77247;SHT35;66279;42.820;23.374;2023-02-12T17:00:38;2.21;66.03
77247;SHT35;66279;42.820;23.374;2023-02-12T17:03:03;2.00;67.30
77247;SHT35;66279;42.820;23.374;2023-02-12T17:05:29;1.90;67.70
77247;SHT35;66279;42.820;23.374;2023-02-12T17:07:55;1.87;68.20
77247;SHT35;66279;42.820;23.374;2023-02-12T17:10:20;1.63;69.41
77247;SHT35;66279;42.820;23.374;2023-02-12T17:12:51;1.65;69.17
77247;SHT35;66279;42.820;23.374;2023-02-12T17:15:20;1.73;68.31
77247;SHT35;66279;42.820;23.374;2023-02-12T17:17:47;1.72;68.40
77247;SHT35;66279;42.820;23.374;2023-02-12T17:20:12;1.59;68.91
77247;SHT35;66279;42.820;23.374;2023-02-12T17:22:38;1.58;68.85
77247;SHT35;66279;42.820;23.374;2023-02-12T17:25:08;1.61;68.95
77247;SHT35;66279;42.820;23.374;2023-02-12T17:27:33;1.62;68.90
77247;SHT35;66279;42.820;23.374;2023-02-12T17:29:59;1.62;68.70
77247;SHT35;66279;42.820;23.374;2023-02-12T17:32:24;1.55;69.20
77247;SHT35;66279;42.820;23.374;2023-02-12T17:34:50;1.54;68.75
77247;SHT35;66279;42.820;23.374;2023-02-12T17:37:16;1.41;69.38
77247;SHT35;66279;42.820;23.374;2023-02-12T17:39:42;1.35;69.52
77247;SHT35;66279;42.820;23.374;2023-02-12T17:42:08;1.28;70.37
77247;SHT35;66279;42.820;23.374;2023-02-12T17:44:33;1.20;70.96
77247;SHT35;66279;42.820;23.374;2023-02-12T17:46:59;1.00;72.09
77247;SHT35;66279;42.820;23.374;2023-02-12T17:49:24;1.05;71.38
77247;SHT35;66279;42.820;23.374;2023-02-12T17:51:50;1.03;71.31
77247;SHT35;66279;42.820;23.374;2023-02-12T17:54:16;0.97;71.63
77247;SHT35;66279;42.820;23.374;2023-02-12T17:56:42;0.91;71.75
77247;SHT35;66279;42.820;23.374;2023-02-12T17:59:09;0.89;71.65
77247;SHT35;66279;42.820;23.374;2023-02-12T18:01:34;0.90;72.24
77247;SHT35;66279;42.820;23.374;2023-02-12T18:04:00;0.90;72.40
77247;SHT35;66279;42.820;23.374;2023-02-12T18:06:29;0.89;72.43
77247;SHT35;66279;42.820;23.374;2023-02-12T18:08:56;0.89;72.12
77247;SHT35;66279;42.820;23.374;2023-02-12T18:11:22;0.76;73.51
77247;SHT35;66279;42.820;23.374;2023-02-12T18:13:50;0.80;73.18
77247;SHT35;66279;42.820;23.374;2023-02-12T18:16:16;0.83;72.79
77247;SHT35;66279;42.820;23.374;2023-02-12T18:18:42;0.86;72.39
77247;SHT35;66279;42.820;23.374;2023-02-12T18:21:09;0.86;72.76
77247;SHT35;66279;42.820;23.374;2023-02-12T18:23:36;0.90;72.87
77247;SHT35;66279;42.820;23.374;2023-02-12T18:26:13;0.91;72.44
77247;SHT35;66279;42.820;23.374;2023-02-12T18:28:40;0.97;72.50
77247;SHT35;66279;42.820;23.374;2023-02-12T18:31:06;0.91;72.80
77247;SHT35;66279;42.820;23.374;2023-02-12T18:33:32;0.86;72.47
77247;SHT35;66279;42.820;23.374;2023-02-12T18:36:02;0.86;72.36
77247;SHT35;66279;42.820;23.374;2023-02-12T18:38:29;0.84;73.25
77247;SHT35;66279;42.820;23.374;2023-02-12T18:40:54;0.72;73.52
77247;SHT35;66279;42.820;23.374;2023-02-12T18:43:20;0.73;73.31
77247;SHT35;66279;42.820;23.374;2023-02-12T18:45:46;0.63;74.26
77247;SHT35;66279;42.820;23.374;2023-02-12T18:48:11;0.73;72.44
77247;SHT35;66279;42.820;23.374;2023-02-12T18:50:37;0.65;74.33
77247;SHT35;66279;42.820;23.374;2023-02-12T18:53:03;0.55;75.32
77247;SHT35;66279;42.820;23.374;2023-02-12T18:55:29;0.49;74.63
77247;SHT35;66279;42.820;23.374;2023-02-12T18:57:54;0.48;75.20
77247;SHT35;66279;42.820;23.374;2023-02-12T19:00:20;0.49;75.11
77247;SHT35;66279;42.820;23.374;2023-02-12T19:02:45;0.45;75.59
77247;SHT35;66279;42.820;23.374;2023-02-12T19:05:11;0.42;75.28
77247;SHT35;66279;42.820;23.374;2023-02-12T19:07:36;0.35;75.54
77247;SHT35;66279;42.820;23.374;2023-02-12T19:10:03;0.33;74.92
77247;SHT35;66279;42.820;23.374;2023-02-12T19:12:28;0.32;75.65
77247;SHT35;66279;42.820;23.374;2023-02-12T19:14:54;0.29;75.49
77247;SHT35;66279;42.820;23.374;2023-02-12T19:17:19;0.39;75.92
77247;SHT35;66279;42.820;23.374;2023-02-12T19:19:49;0.37;75.05
77247;SHT35;66279;42.820;23.374;2023-02-12T19:22:16;0.33;74.84
77247;SHT35;66279;42.820;23.374;2023-02-12T19:24:42;0.33;75.19
77247;SHT35;66279;42.820;23.374;2023-02-12T19:27:08;0.29;75.61
77247;SHT35;66279;42.820;23.374;2023-02-12T19:29:34;0.11;76.38
77247;SHT35;66279;42.820;23.374;2023-02-12T19:31:59;0.08;75.78
77247;SHT35;66279;42.820;23.374;2023-02-12T19:34:25;0.04;76.59
77247;SHT35;66279;42.820;23.374;2023-02-12T19:36:52;-0.17;77.55
77247;SHT35;66279;42.820;23.374;2023-02-12T19:39:20;-0.27;77.47
77247;SHT35;66279;42.820;23.374;2023-02-12T19:41:46;-0.23;76.55
77247;SHT35;66279;42.820;23.374;2023-02-12T19:44:16;-0.24;76.87
77247;SHT35;66279;42.820;23.374;2023-02-12T19:46:42;-0.29;77.01
77247;SHT35;66279;42.820;23.374;2023-02-12T19:49:13;-0.37;77.62
77247;SHT35;66279;42.820;23.374;2023-02-12T19:51:39;-0.41;77.54
77247;SHT35;66279;42.820;23.374;2023-02-12T19:54:06;-0.51;77.04
77247;SHT35;66279;42.820;23.374;2023-02-12T19:56:33;-0.50;77.24
77247;SHT35;66279;42.820;23.374;2023-02-12T19:58:59;-0.51;76.09
77247;SHT35;66279;42.820;23.374;2023-02-12T20:01:26;-0.53;76.63
77247;SHT35;66279;42.820;23.374;2023-02-12T20:03:52;-0.56;76.35
77247;SHT35;66279;42.820;23.374;2023-02-12T20:06:21;-0.58;76.47
77247;SHT35;66279;42.820;23.374;2023-02-12T20:08:47;-0.62;76.49
77247;SHT35;66279;42.820;23.374;2023-02-12T20:11:16;-0.75;76.87
77247;SHT35;66279;42.820;23.374;2023-02-12T20:13:42;-0.95;78.32
77247;SHT35;66279;42.820;23.374;2023-02-12T20:16:13;-0.99;77.69
77247;SHT35;66279;42.820;23.374;2023-02-12T20:18:46;-1.05;77.77
77247;SHT35;66279;42.820;23.374;2023-02-12T20:21:21;-1.12;77.74
77247;SHT35;66279;42.820;23.374;2023-02-12T20:23:48;-1.26;78.50
77247;SHT35;66279;42.820;23.374;2023-02-12T20:26:15;-1.37;78.86
77247;SHT35;66279;42.820;23.374;2023-02-12T20:28:41;-1.50;79.17
77247;SHT35;66279;42.820;23.374;2023-02-12T20:31:16;-1.57;79.42
77247;SHT35;66279;42.820;23.374;2023-02-12T20:33:43;-1.66;79.13
77247;SHT35;66279;42.820;23.374;2023-02-12T20:36:09;-1.78;79.70
77247;SHT35;66279;42.820;23.374;2023-02-12T20:38:36;-1.79;79.64
77247;SHT35;66279;42.820;23.374;2023-02-12T20:41:04;-1.85;80.12
77247;SHT35;66279;42.820;23.374;2023-02-12T20:43:31;-1.84;78.88
77247;SHT35;66279;42.820;23.374;2023-02-12T20:46:03;-1.89;79.48
77247;SHT35;66279;42.820;23.374;2023-02-12T20:48:30;-2.08;80.64
77247;SHT35;66279;42.820;23.374;2023-02-12T20:50:55;-2.23;81.17
77247;SHT35;66279;42.820;23.374;2023-02-12T20:53:21;-2.29;81.28
77247;SHT35;66279;42.820;23.374;2023-02-12T20:55:46;-2.35;81.63
77247;SHT35;66279;42.820;23.374;2023-02-12T20:58:12;-2.29;80.52
77247;SHT35;66279;42.820;23.374;2023-02-12T21:00:37;-2.28;81.12
77247;SHT35;66279;42.820;23.374;2023-02-12T21:03:03;-2.28;80.60
77247;SHT35;66279;42.820;23.374;2023-02-12T21:05:30;-2.37;80.39
77247;SHT35;66279;42.820;23.374;2023-02-12T21:07:56;-2.45;81.16
77247;SHT35;66279;42.820;23.374;2023-02-12T21:10:22;-2.52;81.65
77247;SHT35;66279;42.820;23.374;2023-02-12T21:12:48;-2.61;81.72
77247;SHT35;66279;42.820;23.374;2023-02-12T21:15:13;-2.68;82.52
77247;SHT35;66279;42.820;23.374;2023-02-12T21:17:39;-2.66;81.82
77247;SHT35;66279;42.820;23.374;2023-02-12T21:20:05;-2.67;82.29
77247;SHT35;66279;42.820;23.374;2023-02-12T21:22:31;-2.67;81.72
77247;SHT35;66279;42.820;23.374;2023-02-12T21:24:57;-2.81;81.95
77247;SHT35;66279;42.820;23.374;2023-02-12T21:27:22;-2.87;82.40
77247;SHT35;66279;42.820;23.374;2023-02-12T21:29:48;-2.91;82.40